sensor_id;sensor_type;location;lat;lon;timestamp;P1;durP1;ratioP1;P2;durP2;ratioP2
23732;SDS011;12047;53.450;-2.286;2023-02-28T00:03:15;2.75;;;2.28;;
23732;SDS011;12047;53.450;-2.286;2023-02-28T00:08:18;2.58;;;2.20;;
23732;SDS011;12047;53.450;-2.286;2023-02-28T00:13:41;4.40;;;2.05;;
23732;SDS011;12047;53.450;-2.286;2023-02-28T00:18:51;2.80;;;2.22;;
23732;SDS011;12047;53.450;-2.286;2023-02-28T00:24:16;2.37;;;1.87;;
23732;SDS011;12047;53.450;-2.286;2023-02-28T00:29:33;3.25;;;2.50;;
23732;SDS011;12047;53.450;-2.286;2023-02-28T00:34:48;3.55;;;2.78;;
23732;SDS011;12047;53.450;-2.286;2023-02-28T00:40:21;4.55;;;3.00;;
23732;SDS011;12047;53.450;-2.286;2023-02-28T00:45:28;4.68;;;3.28;;
23732;SDS011;12047;53.450;-2.286;2023-02-28T00:56:35;5.10;;;3.65;;
23732;SDS011;12047;53.450;-2.286;2023-02-28T01:01:55;4.00;;;3.30;;
23732;SDS011;12047;53.450;-2.286;2023-02-28T01:07:00;4.80;;;3.58;;
23732;SDS011;12047;53.450;-2.286;2023-02-28T01:12:03;4.03;;;3.17;;
23732;SDS011;12047;53.450;-2.286;2023-02-28T01:17:12;4.45;;;3.22;;
23732;SDS011;12047;53.450;-2.286;2023-02-28T01:28:41;4.25;;;2.85;;
23732;SDS011;12047;53.450;-2.286;2023-02-28T01:39:30;7.32;;;3.25;;
23732;SDS011;12047;53.450;-2.286;2023-02-28T01:56:28;5.75;;;3.53;;
23732;SDS011;12047;53.450;-2.286;2023-02-28T02:01:50;7.05;;;3.67;;
23732;SDS011;12047;53.450;-2.286;2023-02-28T02:07:02;5.20;;;3.65;;
23732;SDS011;12047;53.450;-2.286;2023-02-28T02:40:37;6.25;;;4.22;;
23732;SDS011;12047;53.450;-2.286;2023-02-28T02:46:06;4.55;;;4.10;;
23732;SDS011;12047;53.450;-2.286;2023-02-28T02:51:07;8.73;;;4.15;;
23732;SDS011;12047;53.450;-2.286;2023-02-28T02:56:38;5.45;;;4.10;;
23732;SDS011;12047;53.450;-2.286;2023-02-28T03:01:44;5.10;;;3.97;;
23732;SDS011;12047;53.450;-2.286;2023-02-28T03:06:45;4.00;;;3.45;;
23732;SDS011;12047;53.450;-2.286;2023-02-28T03:11:45;4.85;;;4.00;;
23732;SDS011;12047;53.450;-2.286;2023-02-28T03:17:07;5.97;;;4.65;;
23732;SDS011;12047;53.450;-2.286;2023-02-28T03:33:17;6.22;;;4.88;;
23732;SDS011;12047;53.450;-2.286;2023-02-28T03:38:31;6.10;;;4.38;;
23732;SDS011;12047;53.450;-2.286;2023-02-28T03:43:38;6.43;;;4.97;;
23732;SDS011;12047;53.450;-2.286;2023-02-28T03:48:49;5.85;;;4.88;;
23732;SDS011;12047;53.450;-2.286;2023-02-28T03:53:59;7.72;;;5.55;;
23732;SDS011;12047;53.450;-2.286;2023-02-28T03:59:10;7.55;;;5.05;;
23732;SDS011;12047;53.450;-2.286;2023-02-28T04:04:15;9.43;;;6.43;;
23732;SDS011;12047;53.450;-2.286;2023-02-28T04:09:18;8.85;;;6.63;;
23732;SDS011;12047;53.450;-2.286;2023-02-28T04:14:19;8.50;;;6.55;;
23732;SDS011;12047;53.450;-2.286;2023-02-28T04:19:24;8.80;;;6.88;;
23732;SDS011;12047;53.450;-2.286;2023-02-28T04:24:25;8.75;;;6.45;;
23732;SDS011;12047;53.450;-2.286;2023-02-28T04:29:34;6.88;;;5.55;;
23732;SDS011;12047;53.450;-2.286;2023-02-28T04:34:34;6.60;;;5.03;;
23732;SDS011;12047;53.450;-2.286;2023-02-28T04:39:36;5.78;;;4.63;;
23732;SDS011;12047;53.450;-2.286;2023-02-28T04:44:37;5.30;;;4.80;;
23732;SDS011;12047;53.450;-2.286;2023-02-28T04:49:37;6.35;;;3.88;;
23732;SDS011;12047;53.450;-2.286;2023-02-28T04:54:41;5.45;;;4.28;;
23732;SDS011;12047;53.450;-2.286;2023-02-28T04:59:42;5.47;;;4.50;;
23732;SDS011;12047;53.450;-2.286;2023-02-28T05:04:42;7.40;;;4.75;;
23732;SDS011;12047;53.450;-2.286;2023-02-28T05:09:45;7.97;;;5.30;;
23732;SDS011;12047;53.450;-2.286;2023-02-28T05:14:57;4.80;;;3.88;;
23732;SDS011;12047;53.450;-2.286;2023-02-28T05:19:57;6.22;;;4.47;;
23732;SDS011;12047;53.450;-2.286;2023-02-28T05:24:58;5.72;;;4.00;;
23732;SDS011;12047;53.450;-2.286;2023-02-28T05:29:59;6.40;;;3.35;;
23732;SDS011;12047;53.450;-2.286;2023-02-28T05:35:02;4.25;;;2.78;;
23732;SDS011;12047;53.450;-2.286;2023-02-28T05:40:04;4.38;;;2.80;;
23732;SDS011;12047;53.450;-2.286;2023-02-28T05:45:31;2.15;;;1.95;;
23732;SDS011;12047;53.450;-2.286;2023-02-28T05:50:32;1.40;;;1.25;;
23732;SDS011;12047;53.450;-2.286;2023-02-28T05:55:33;2.78;;;1.10;;
23732;SDS011;12047;53.450;-2.286;2023-02-28T06:00:35;2.85;;;0.93;;
23732;SDS011;12047;53.450;-2.286;2023-02-28T06:05:36;1.23;;;0.90;;
23732;SDS011;12047;53.450;-2.286;2023-02-28T06:10:40;2.05;;;1.42;;
23732;SDS011;12047;53.450;-2.286;2023-02-28T06:15:42;1.65;;;1.20;;
23732;SDS011;12047;53.450;-2.286;2023-02-28T06:20:43;2.03;;;1.27;;
23732;SDS011;12047;53.450;-2.286;2023-02-28T06:25:53;1.75;;;1.23;;
23732;SDS011;12047;53.450;-2.286;2023-02-28T06:31:04;2.97;;;1.40;;
23732;SDS011;12047;53.450;-2.286;2023-02-28T06:36:08;3.50;;;1.52;;
23732;SDS011;12047;53.450;-2.286;2023-02-28T06:41:11;6.43;;;2.08;;
23732;SDS011;12047;53.450;-2.286;2023-02-28T06:46:13;2.80;;;1.88;;
23732;SDS011;12047;53.450;-2.286;2023-02-28T06:51:15;4.78;;;2.42;;
23732;SDS011;12047;53.450;-2.286;2023-02-28T06:56:18;4.88;;;2.30;;
23732;SDS011;12047;53.450;-2.286;2023-02-28T07:01:20;3.85;;;2.20;;
23732;SDS011;12047;53.450;-2.286;2023-02-28T07:06:23;2.95;;;1.90;;
23732;SDS011;12047;53.450;-2.286;2023-02-28T07:11:25;5.00;;;2.10;;
23732;SDS011;12047;53.450;-2.286;2023-02-28T07:16:29;4.38;;;2.00;;
23732;SDS011;12047;53.450;-2.286;2023-02-28T07:21:30;6.82;;;2.10;;
23732;SDS011;12047;53.450;-2.286;2023-02-28T07:26:30;3.85;;;1.60;;
23732;SDS011;12047;53.450;-2.286;2023-02-28T07:31:34;7.35;;;1.70;;
23732;SDS011;12047;53.450;-2.286;2023-02-28T07:36:34;5.35;;;2.00;;
23732;SDS011;12047;53.450;-2.286;2023-02-28T07:41:35;4.57;;;2.08;;
23732;SDS011;12047;53.450;-2.286;2023-02-28T07:46:43;3.67;;;2.25;;
23732;SDS011;12047;53.450;-2.286;2023-02-28T07:51:43;5.78;;;2.03;;
23732;SDS011;12047;53.450;-2.286;2023-02-28T07:56:43;5.07;;;1.67;;
23732;SDS011;12047;53.450;-2.286;2023-02-28T08:01:44;3.95;;;1.90;;
23732;SDS011;12047;53.450;-2.286;2023-02-28T08:06:45;3.15;;;1.77;;
23732;SDS011;12047;53.450;-2.286;2023-02-28T08:11:46;4.63;;;1.42;;
23732;SDS011;12047;53.450;-2.286;2023-02-28T08:16:46;4.38;;;1.63;;
23732;SDS011;12047;53.450;-2.286;2023-02-28T08:21:47;8.50;;;1.95;;
23732;SDS011;12047;53.450;-2.286;2023-02-28T08:26:47;5.40;;;2.10;;
23732;SDS011;12047;53.450;-2.286;2023-02-28T08:31:48;1.65;;;1.42;;
23732;SDS011;12047;53.450;-2.286;2023-02-28T08:36:49;3.00;;;1.50;;
23732;SDS011;12047;53.450;-2.286;2023-02-28T08:41:49;4.55;;;2.72;;
23732;SDS011;12047;53.450;-2.286;2023-02-28T08:46:52;6.68;;;2.90;;
23732;SDS011;12047;53.450;-2.286;2023-02-28T08:51:53;8.23;;;2.00;;
23732;SDS011;12047;53.450;-2.286;2023-02-28T08:56:55;4.50;;;1.73;;
23732;SDS011;12047;53.450;-2.286;2023-02-28T09:01:55;2.58;;;1.98;;
23732;SDS011;12047;53.450;-2.286;2023-02-28T09:06:56;3.90;;;1.52;;
23732;SDS011;12047;53.450;-2.286;2023-02-28T09:11:56;2.97;;;1.35;;
23732;SDS011;12047;53.450;-2.286;2023-02-28T09:16:57;2.42;;;1.67;;
23732;SDS011;12047;53.450;-2.286;2023-02-28T09:27:48;3.85;;;1.35;;
23732;SDS011;12047;53.450;-2.286;2023-02-28T09:32:49;1.40;;;0.90;;
23732;SDS011;12047;53.450;-2.286;2023-02-28T09:37:53;0.80;;;0.77;;
23732;SDS011;12047;53.450;-2.286;2023-02-28T09:42:57;3.25;;;1.35;;
23732;SDS011;12047;53.450;-2.286;2023-02-28T09:48:01;1.60;;;0.90;;
23732;SDS011;12047;53.450;-2.286;2023-02-28T09:53:33;4.88;;;0.73;;
23732;SDS011;12047;53.450;-2.286;2023-02-28T10:03:47;5.00;;;1.05;;
23732;SDS011;12047;53.450;-2.286;2023-02-28T10:09:21;0.60;;;0.60;;
23732;SDS011;12047;53.450;-2.286;2023-02-28T10:14:27;3.45;;;1.33;;
23732;SDS011;12047;53.450;-2.286;2023-02-28T10:19:34;2.83;;;1.20;;
23732;SDS011;12047;53.450;-2.286;2023-02-28T10:24:53;5.10;;;1.30;;
23732;SDS011;12047;53.450;-2.286;2023-02-28T10:30:03;3.38;;;1.30;;
23732;SDS011;12047;53.450;-2.286;2023-02-28T10:45:18;9.52;;;1.38;;
23732;SDS011;12047;53.450;-2.286;2023-02-28T10:50:42;4.13;;;1.20;;
23732;SDS011;12047;53.450;-2.286;2023-02-28T10:55:44;3.92;;;0.98;;
23732;SDS011;12047;53.450;-2.286;2023-02-28T11:00:45;4.00;;;0.77;;
23732;SDS011;12047;53.450;-2.286;2023-02-28T11:05:47;3.17;;;0.70;;
23732;SDS011;12047;53.450;-2.286;2023-02-28T11:10:54;1.52;;;0.75;;
23732;SDS011;12047;53.450;-2.286;2023-02-28T11:15:57;5.03;;;0.70;;
23732;SDS011;12047;53.450;-2.286;2023-02-28T11:21:00;1.70;;;0.40;;
23732;SDS011;12047;53.450;-2.286;2023-02-28T11:26:03;1.88;;;0.88;;
23732;SDS011;12047;53.450;-2.286;2023-02-28T11:31:26;0.70;;;0.50;;
23732;SDS011;12047;53.450;-2.286;2023-02-28T11:36:28;4.72;;;0.52;;
23732;SDS011;12047;53.450;-2.286;2023-02-28T11:46:47;4.95;;;0.60;;
23732;SDS011;12047;53.450;-2.286;2023-02-28T11:58:20;2.85;;;0.70;;
23732;SDS011;12047;53.450;-2.286;2023-02-28T12:13:57;8.23;;;0.90;;
23732;SDS011;12047;53.450;-2.286;2023-02-28T12:24:27;4.93;;;0.90;;
23732;SDS011;12047;53.450;-2.286;2023-02-28T12:29:40;0.95;;;0.40;;
23732;SDS011;12047;53.450;-2.286;2023-02-28T12:34:47;1.38;;;0.68;;
23732;SDS011;12047;53.450;-2.286;2023-02-28T12:39:54;4.20;;;0.60;;
23732;SDS011;12047;53.450;-2.286;2023-02-28T12:45:07;2.33;;;0.65;;
23732;SDS011;12047;53.450;-2.286;2023-02-28T12:50:13;1.65;;;0.70;;
23732;SDS011;12047;53.450;-2.286;2023-02-28T13:00:38;2.70;;;1.00;;
23732;SDS011;12047;53.450;-2.286;2023-02-28T13:11:33;2.63;;;0.93;;
23732;SDS011;12047;53.450;-2.286;2023-02-28T13:16:51;3.78;;;0.90;;
23732;SDS011;12047;53.450;-2.286;2023-02-28T13:21:58;5.15;;;0.68;;
23732;SDS011;12047;53.450;-2.286;2023-02-28T13:42:31;4.45;;;0.90;;
23732;SDS011;12047;53.450;-2.286;2023-02-28T13:47:48;3.00;;;0.80;;
23732;SDS011;12047;53.450;-2.286;2023-02-28T14:13:53;1.48;;;0.82;;
23732;SDS011;12047;53.450;-2.286;2023-02-28T14:19:09;1.20;;;0.50;;
23732;SDS011;12047;53.450;-2.286;2023-02-28T14:40:33;2.78;;;0.40;;
23732;SDS011;12047;53.450;-2.286;2023-02-28T14:45:35;4.15;;;0.55;;
23732;SDS011;12047;53.450;-2.286;2023-02-28T14:50:37;1.33;;;0.50;;
23732;SDS011;12047;53.450;-2.286;2023-02-28T14:55:43;3.20;;;0.55;;
23732;SDS011;12047;53.450;-2.286;2023-02-28T15:00:51;2.05;;;0.47;;
23732;SDS011;12047;53.450;-2.286;2023-02-28T15:05:57;1.23;;;0.50;;
23732;SDS011;12047;53.450;-2.286;2023-02-28T15:21:43;3.65;;;0.68;;
23732;SDS011;12047;53.450;-2.286;2023-02-28T15:26:46;2.53;;;0.30;;
23732;SDS011;12047;53.450;-2.286;2023-02-28T15:31:51;4.78;;;0.70;;
23732;SDS011;12047;53.450;-2.286;2023-02-28T15:36:56;1.33;;;0.90;;
23732;SDS011;12047;53.450;-2.286;2023-02-28T15:42:18;0.80;;;0.50;;
23732;SDS011;12047;53.450;-2.286;2023-02-28T15:47:24;2.42;;;0.80;;
23732;SDS011;12047;53.450;-2.286;2023-02-28T15:57:36;5.45;;;0.68;;
23732;SDS011;12047;53.450;-2.286;2023-02-28T16:02:40;5.43;;;0.90;;
23732;SDS011;12047;53.450;-2.286;2023-02-28T16:07:41;1.45;;;0.80;;
23732;SDS011;12047;53.450;-2.286;2023-02-28T16:12:43;4.22;;;0.98;;
23732;SDS011;12047;53.450;-2.286;2023-02-28T16:17:43;3.33;;;1.17;;
23732;SDS011;12047;53.450;-2.286;2023-02-28T16:22:46;1.98;;;0.50;;
23732;SDS011;12047;53.450;-2.286;2023-02-28T16:33:44;3.13;;;0.70;;
23732;SDS011;12047;53.450;-2.286;2023-02-28T16:38:51;2.88;;;0.73;;
23732;SDS011;12047;53.450;-2.286;2023-02-28T16:43:56;1.50;;;0.60;;
23732;SDS011;12047;53.450;-2.286;2023-02-28T16:49:00;5.28;;;0.60;;
23732;SDS011;12047;53.450;-2.286;2023-02-28T16:54:01;2.75;;;0.43;;
23732;SDS011;12047;53.450;-2.286;2023-02-28T16:59:03;1.83;;;0.60;;
23732;SDS011;12047;53.450;-2.286;2023-02-28T17:04:03;3.25;;;0.65;;
23732;SDS011;12047;53.450;-2.286;2023-02-28T17:09:04;4.65;;;0.77;;
23732;SDS011;12047;53.450;-2.286;2023-02-28T17:14:05;3.08;;;0.80;;
23732;SDS011;12047;53.450;-2.286;2023-02-28T17:19:07;3.97;;;0.60;;
23732;SDS011;12047;53.450;-2.286;2023-02-28T17:24:11;5.30;;;0.60;;
23732;SDS011;12047;53.450;-2.286;2023-02-28T17:29:19;2.97;;;0.70;;
23732;SDS011;12047;53.450;-2.286;2023-02-28T17:34:21;3.97;;;1.30;;
23732;SDS011;12047;53.450;-2.286;2023-02-28T17:39:23;3.83;;;1.00;;
23732;SDS011;12047;53.450;-2.286;2023-02-28T17:44:24;6.07;;;3.08;;
23732;SDS011;12047;53.450;-2.286;2023-02-28T17:49:25;7.03;;;1.23;;
23732;SDS011;12047;53.450;-2.286;2023-02-28T17:54:25;3.70;;;1.10;;
23732;SDS011;12047;53.450;-2.286;2023-02-28T17:59:26;3.03;;;1.00;;
23732;SDS011;12047;53.450;-2.286;2023-02-28T18:04:33;1.70;;;1.25;;
23732;SDS011;12047;53.450;-2.286;2023-02-28T18:09:33;2.90;;;1.27;;
23732;SDS011;12047;53.450;-2.286;2023-02-28T18:14:34;2.33;;;1.08;;
23732;SDS011;12047;53.450;-2.286;2023-02-28T18:19:35;3.47;;;2.08;;
23732;SDS011;12047;53.450;-2.286;2023-02-28T18:24:35;4.20;;;1.00;;
23732;SDS011;12047;53.450;-2.286;2023-02-28T18:29:36;2.28;;;1.20;;
23732;SDS011;12047;53.450;-2.286;2023-02-28T18:34:37;7.38;;;1.10;;
23732;SDS011;12047;53.450;-2.286;2023-02-28T18:39:37;3.05;;;1.10;;
23732;SDS011;12047;53.450;-2.286;2023-02-28T18:44:38;2.53;;;1.20;;
23732;SDS011;12047;53.450;-2.286;2023-02-28T18:49:39;2.15;;;0.90;;
23732;SDS011;12047;53.450;-2.286;2023-02-28T18:54:39;2.00;;;1.05;;
23732;SDS011;12047;53.450;-2.286;2023-02-28T18:59:40;2.35;;;1.02;;
23732;SDS011;12047;53.450;-2.286;2023-02-28T19:04:40;3.70;;;1.42;;
23732;SDS011;12047;53.450;-2.286;2023-02-28T19:09:41;4.30;;;1.45;;
23732;SDS011;12047;53.450;-2.286;2023-02-28T19:14:41;8.57;;;1.58;;
23732;SDS011;12047;53.450;-2.286;2023-02-28T19:19:42;4.13;;;1.38;;
23732;SDS011;12047;53.450;-2.286;2023-02-28T19:24:43;2.20;;;1.52;;
23732;SDS011;12047;53.450;-2.286;2023-02-28T19:29:46;4.22;;;1.90;;
23732;SDS011;12047;53.450;-2.286;2023-02-28T19:34:48;3.22;;;1.50;;
23732;SDS011;12047;53.450;-2.286;2023-02-28T19:39:49;3.30;;;1.70;;
23732;SDS011;12047;53.450;-2.286;2023-02-28T19:44:49;4.13;;;1.88;;
23732;SDS011;12047;53.450;-2.286;2023-02-28T19:49:50;3.70;;;1.48;;
23732;SDS011;12047;53.450;-2.286;2023-02-28T19:54:53;3.42;;;1.60;;
23732;SDS011;12047;53.450;-2.286;2023-02-28T19:59:54;5.60;;;2.30;;
23732;SDS011;12047;53.450;-2.286;2023-02-28T20:04:54;4.53;;;2.10;;
23732;SDS011;12047;53.450;-2.286;2023-02-28T20:09:56;4.80;;;2.75;;
23732;SDS011;12047;53.450;-2.286;2023-02-28T20:14:57;3.55;;;2.47;;
23732;SDS011;12047;53.450;-2.286;2023-02-28T20:20:01;3.63;;;1.63;;
23732;SDS011;12047;53.450;-2.286;2023-02-28T20:25:03;3.97;;;1.73;;
23732;SDS011;12047;53.450;-2.286;2023-02-28T20:30:04;3.03;;;1.70;;
23732;SDS011;12047;53.450;-2.286;2023-02-28T20:35:06;5.93;;;1.77;;
23732;SDS011;12047;53.450;-2.286;2023-02-28T20:40:10;6.10;;;2.25;;
23732;SDS011;12047;53.450;-2.286;2023-02-28T20:45:17;3.03;;;1.77;;
23732;SDS011;12047;53.450;-2.286;2023-02-28T20:50:18;4.10;;;2.00;;
23732;SDS011;12047;53.450;-2.286;2023-02-28T20:55:19;4.53;;;2.00;;
23732;SDS011;12047;53.450;-2.286;2023-02-28T21:00:21;4.00;;;1.70;;
23732;SDS011;12047;53.450;-2.286;2023-02-28T21:05:50;5.15;;;1.80;;
23732;SDS011;12047;53.450;-2.286;2023-02-28T21:10:51;16.67;;;10.15;;
23732;SDS011;12047;53.450;-2.286;2023-02-28T21:15:52;3.85;;;2.25;;
23732;SDS011;12047;53.450;-2.286;2023-02-28T21:20:53;2.80;;;1.83;;
23732;SDS011;12047;53.450;-2.286;2023-02-28T21:26:03;6.03;;;1.80;;
23732;SDS011;12047;53.450;-2.286;2023-02-28T21:31:06;5.05;;;1.70;;
23732;SDS011;12047;53.450;-2.286;2023-02-28T21:36:09;5.47;;;1.55;;
23732;SDS011;12047;53.450;-2.286;2023-02-28T21:41:18;4.82;;;1.70;;
23732;SDS011;12047;53.450;-2.286;2023-02-28T21:46:22;5.13;;;1.58;;
23732;SDS011;12047;53.450;-2.286;2023-02-28T21:51:25;7.68;;;2.53;;
23732;SDS011;12047;53.450;-2.286;2023-02-28T21:56:33;4.60;;;1.92;;
23732;SDS011;12047;53.450;-2.286;2023-02-28T22:01:36;5.55;;;1.77;;
23732;SDS011;12047;53.450;-2.286;2023-02-28T22:06:39;3.20;;;1.63;;
23732;SDS011;12047;53.450;-2.286;2023-02-28T22:11:40;5.00;;;1.80;;
23732;SDS011;12047;53.450;-2.286;2023-02-28T22:16:40;4.93;;;1.50;;
23732;SDS011;12047;53.450;-2.286;2023-02-28T22:21:41;4.55;;;1.70;;
23732;SDS011;12047;53.450;-2.286;2023-02-28T22:26:42;4.32;;;2.10;;
23732;SDS011;12047;53.450;-2.286;2023-02-28T22:31:42;6.78;;;2.70;;
23732;SDS011;12047;53.450;-2.286;2023-02-28T22:36:43;5.97;;;2.58;;
23732;SDS011;12047;53.450;-2.286;2023-02-28T22:41:43;5.97;;;2.70;;
23732;SDS011;12047;53.450;-2.286;2023-02-28T22:46:44;6.05;;;2.60;;
23732;SDS011;12047;53.450;-2.286;2023-02-28T22:51:44;6.85;;;2.50;;
23732;SDS011;12047;53.450;-2.286;2023-02-28T22:56:45;4.53;;;2.45;;
23732;SDS011;12047;53.450;-2.286;2023-02-28T23:01:46;4.13;;;2.25;;
23732;SDS011;12047;53.450;-2.286;2023-02-28T23:06:47;3.97;;;1.90;;
23732;SDS011;12047;53.450;-2.286;2023-02-28T23:11:48;4.65;;;2.03;;
23732;SDS011;12047;53.450;-2.286;2023-02-28T23:16:52;4.43;;;2.03;;
23732;SDS011;12047;53.450;-2.286;2023-02-28T23:21:54;3.63;;;2.00;;
23732;SDS011;12047;53.450;-2.286;2023-02-28T23:26:58;4.88;;;2.17;;
23732;SDS011;12047;53.450;-2.286;2023-02-28T23:32:01;6.22;;;2.22;;
23732;SDS011;12047;53.450;-2.286;2023-02-28T23:37:02;6.15;;;2.70;;
23732;SDS011;12047;53.450;-2.286;2023-02-28T23:42:02;8.18;;;2.20;;
23732;SDS011;12047;53.450;-2.286;2023-02-28T23:47:03;4.80;;;1.73;;
23732;SDS011;12047;53.450;-2.286;2023-02-28T23:52:04;5.65;;;1.70;;
23732;SDS011;12047;53.450;-2.286;2023-02-28T23:57:05;5.25;;;1.40;;
